Thursday, August 24, 2017, 1:05 AM EDT

KPHF, Williamsburg International Airport

Location: Newport News, VA, United States Lat: 37.133
Local Time: 1:05 AM EDT ( 5:05 GMT) Lon: -76.5
Time Zone: US/Eastern Elev: 42 ft

Show me the last for .
Show Decoded

2017-08-23 23:54 METAR KPHF 240354Z AUTO 02003KT 10SM OVC043 23/21 A2988 RMK AO2 SLP119 T02330206
                 =
2017-08-23 22:54 METAR KPHF 240254Z AUTO 05005KT 10SM BKN040 24/21 A2988 RMK AO2 SLP118 T02390206
                 53012 =
2017-08-23 21:54 METAR KPHF 240154Z 04005KT 10SM OVC036 24/21 A2987 RMK AO2 SLP114 T02390211 =
2017-08-23 20:54 METAR KPHF 240054Z 03005KT 10SM FEW035 FEW070 OVC120 23/19 A2985 RMK AO2 SLP107
                 T02330194 =
2017-08-23 19:54 METAR KPHF 232354Z 02003KT 10SM BKN035 OVC085 24/23 A2985 RMK AO2 RAE2256 SLP106
                 P0000 60001 T02440228 10306 20244 51005 =
2017-08-23 18:54 METAR KPHF 232254Z 03003KT 10SM -RA FEW040 OVC100 24/23 A2984 RMK AO2 RAE2158B41
                 SLP103 P0000 T02440228 =
2017-08-23 18:12 METAR KPHF 232212Z 00000KT 10SM FEW014 SCT024 BKN044 25/23 A2985 RMK AO2 LTG
                 DSNT E AND SE RAE2158 P0000 T02500233 =
2017-08-23 17:54 METAR KPHF 232154Z 00000KT 10SM -RA SCT017 BKN023 OVC028 25/23 A2985 RMK AO2 LTG
                 DSNT E-S TSE14 SLP108 P0001 T02500228 =
2017-08-23 17:41 METAR KPHF 232141Z 00000KT 6SM -RA SCT018 BKN023 OVC046 25/22 A2985 RMK AO2 LTG
                 DSNT E-S TSE14 P0001 T02500222 =
2017-08-23 17:29 METAR KPHF 232129Z 00000KT 6SM -RA SCT021 SCT034 BKN045 25/22 A2983 RMK AO2 LTG
                 DSNT NE-S TSE14 P0001 T02500217 =
2017-08-23 17:20 METAR KPHF 232120Z 29006KT 10SM VCTS -RA FEW021 SCT034 BKN049 25/22 A2984 RMK
                 AO2 LTG DSNT NE-S TSE14 P0000 T02500217 =
2017-08-23 16:54 METAR KPHF 232054Z 36005KT 10SM -TSRA FEW044 FEW050 BKN120 24/21 A2983 RMK AO2
                 LTG DSNT SE-SW RAB27 TSB21E36B48 SLP101 P0000 60000 T02440211 55003 =
2017-08-23 16:42 METAR KPHF 232042Z 02005KT 10SM VCTS -RA FEW070 FEW100 BKN120 24/21 A2983 RMK
                 AO2 LTG DSNT SE-W RAB27 TSB21E36 P0000 T02440211 =
2017-08-23 16:27 METAR KPHF 232027Z 07008KT 10SM -TSRA FEW045 FEW070 BKN100 25/21 A2984 RMK AO2
                 LTG DSNT SE-W RAB27 TSB21 P0000 T02500211 =
2017-08-23 16:02 METAR KPHF 232002Z 02008KT 10SM VCTS BKN045 25/21 A2983 RMK AO2 LTG DSNT ALQDS
                 T02500206 =
2017-08-23 15:54 METAR KPHF 231954Z 03008KT 10SM SCT041 BKN047 26/21 A2983 RMK AO2 LTG DSNT SW-NW
                 SLP099 T02560206 =
2017-08-23 15:41 METAR KPHF 231941Z 03008KT 10SM SCT032 BKN041 OVC049 27/21 A2982 RMK AO2 LTG
                 DSNT SW-NW T02670211 =
2017-08-23 15:04 METAR KPHF 231904Z 08011KT 10SM VCTS CLR 30/23 A2983 RMK AO2 LTG DSNT N AND NW
                 T03000233 =
2017-08-23 14:54 METAR KPHF 231854Z 08010KT 10SM CLR 30/23 A2982 RMK AO2 LTG DSNT NW SLP097
                 T03000233 =
2017-08-23 13:54 METAR KPHF 231754Z 09010KT 10SM FEW035 FEW043 SCT120 30/23 A2984 RMK AO2 SLP105
                 T03000228 10311 20256 58006 =
2017-08-23 13:19 METAR KPHF 231719Z 05004KT 10SM SCT028 BKN039 OVC049 29/23 A2985 RMK AO2
                 T02940228 =
2017-08-23 13:11 METAR KPHF 231711Z 04005KT 10SM BKN028 OVC037 29/23 A2986 RMK AO2 T02940228 =
2017-08-23 12:54 METAR KPHF 231654Z 07004KT 10SM SCT030 BKN038 31/23 A2986 RMK AO2 SLP109
                 T03110233 =
2017-08-23 12:21 METAR KPHF 231621Z 04003KT 10SM SCT029 SCT033 31/23 A2986 RMK AO2 T03060233 =
2017-08-23 12:01 METAR KPHF 231601Z 03004KT 10SM BKN028 OVC033 30/23 A2986 RMK AO2 T03000233 =
2017-08-23 11:54 METAR KPHF 231554Z 35003KT 10SM SCT026 BKN033 30/23 A2986 RMK AO2 SLP112
                 T03000233 =
2017-08-23 10:54 METAR KPHF 231454Z 00000KT 10SM CLR 29/23 A2986 RMK AO2 SLP111 T02940233 53003 =
2017-08-23 09:54 METAR KPHF 231354Z 27006KT 10SM CLR 28/23 A2985 RMK AO2 SLP108 T02830233 =
2017-08-23 08:54 METAR KPHF 231254Z 27009KT 10SM CLR 27/23 A2985 RMK AO2 SLP107 T02670233 =
2017-08-23 07:54 METAR KPHF 231154Z 24008KT 10SM CLR 26/23 A2985 RMK AO2 SLP109 7//// T02560228
                 10261 20250 53005 =
2017-08-23 06:54 METAR KPHF 231054Z 23009KT 10SM CLR 25/23 A2985 RMK AO2 SLP106 T02500228 =
2017-08-23 05:54 METAR KPHF 230954Z AUTO 23010KT 10SM CLR 25/23 A2984 RMK AO2 SLP105 T02500228 =
2017-08-23 04:54 METAR KPHF 230854Z AUTO 22009KT 10SM CLR 26/23 A2984 RMK AO2 SLP103 T02560228
                 58008 =
2017-08-23 03:54 METAR KPHF 230754Z AUTO 22012KT 10SM CLR 26/23 A2985 RMK AO2 SLP107 T02560233 =
2017-08-23 02:54 METAR KPHF 230654Z AUTO 22011KT 10SM CLR 26/23 A2985 RMK AO2 SLP109 T02610233 =
2017-08-23 01:54 METAR KPHF 230554Z AUTO 21013KT 10SM CLR 26/24 A2986 RMK AO2 SLP111 T02610239
                 10289 20261 58010 =

Support USWX by starting your Amazon purchase here.